Time,TemperatureF,DewpointF,PressureIn,WindDirection,WindDirectionDegrees,WindSpeedMPH,WindSpeedGustMPH,Humidity,HourlyPrecipIn,Conditions,Clouds,dailyrainin,SoftwareType,DateUTC
2013-03-09 00:00:00,32.6,28.0,30.08,ESE,112,1.0,5.0,83,0.00,,SKC,0.00,VWS V14.01,2013-03-09 06:00:00,
2013-03-09 00:10:00,31.5,28.0,30.09,ESE,120,1.0,-999.0,85,-99.99,,,0.00,weatherlink.com 1.10,2013-03-09 06:10:00,
2013-03-09 00:25:00,32.1,28.0,30.09,ESE,119,0.0,-999.0,84,-99.99,,,0.00,weatherlink.com 1.10,2013-03-09 06:25:00,
2013-03-09 00:30:00,32.9,28.3,30.07,ESE,112,2.0,7.0,83,0.00,,SKC,0.00,VWS V14.01,2013-03-09 06:30:00,
2013-03-09 00:40:00,32.3,28.0,30.09,ESE,113,0.0,-999.0,84,-99.99,,,0.00,weatherlink.com 1.10,2013-03-09 06:40:00,
2013-03-09 00:55:00,32.6,28.0,30.09,ESE,113,0.0,-999.0,84,-99.99,,,0.00,weatherlink.com 1.10,2013-03-09 06:55:00,
2013-03-09 01:00:00,33.1,28.5,30.05,East,90,2.0,6.0,83,0.00,,SKC,0.00,VWS V14.01,2013-03-09 07:00:00,
2013-03-09 01:10:00,32.8,28.0,30.08,ESE,115,2.0,-999.0,83,-99.99,,,0.00,weatherlink.com 1.10,2013-03-09 07:10:00,
2013-03-09 01:25:00,32.9,28.0,30.07,SE,127,2.0,-999.0,83,-99.99,,,0.00,weatherlink.com 1.10,2013-03-09 07:25:00,
2013-03-09 01:30:00,33.6,28.7,30.03,East,90,3.0,9.0,82,0.00,,SKC,0.00,VWS V14.01,2013-03-09 07:30:00,
2013-03-09 01:40:00,32.9,28.0,30.06,ESE,115,2.0,-999.0,83,-99.99,,,0.00,weatherlink.com 1.10,2013-03-09 07:40:00,
2013-03-09 01:56:00,33.0,28.0,30.05,East,96,4.0,-999.0,83,-99.99,,,0.00,weatherlink.com 1.10,2013-03-09 07:56:00,
2013-03-09 02:00:00,33.4,30.0,30.01,ESE,112,4.0,11.0,87,0.00,,SKC,0.00,VWS V14.01,2013-03-09 08:00:00,
2013-03-09 02:11:00,33.3,28.0,30.04,ENE,69,3.0,-999.0,82,-99.99,,,0.00,weatherlink.com 1.10,2013-03-09 08:11:00,
2013-03-09 02:26:00,33.5,29.0,30.03,East,89,3.0,-999.0,82,-99.99,,,0.00,weatherlink.com 1.10,2013-03-09 08:26:00,
2013-03-09 02:30:00,33.0,30.7,29.99,East,90,4.0,9.0,91,0.00,,SKC,0.00,VWS V14.01,2013-03-09 08:30:00,
2013-03-09 02:41:00,33.8,29.0,30.03,ESE,121,6.0,-999.0,82,-99.99,,,0.00,weatherlink.com 1.10,2013-03-09 08:41:00,
2013-03-09 02:56:00,33.5,30.0,30.02,ESE,102,2.0,-999.0,86,-99.99,,,0.00,weatherlink.com 1.10,2013-03-09 08:56:00,
2013-03-09 03:00:00,33.0,31.2,29.98,ESE,112,5.0,13.0,93,0.00,,SKC,0.00,VWS V14.01,2013-03-09 09:00:00,
2013-03-09 03:11:00,33.1,30.0,30.01,ESE,120,4.0,-999.0,89,-99.99,,,0.00,weatherlink.com 1.10,2013-03-09 09:11:00,
2013-03-09 03:26:00,33.0,31.0,29.99,East,98,2.0,-999.0,91,-99.99,,,0.00,weatherlink.com 1.10,2013-03-09 09:26:00,
2013-03-09 03:30:00,33.0,31.5,29.96,ESE,112,6.0,12.0,94,0.00,,SKC,0.00,VWS V14.01,2013-03-09 09:30:00,
2013-03-09 03:41:00,33.0,31.0,29.99,East,85,4.0,-999.0,92,-99.99,,,0.00,weatherlink.com 1.10,2013-03-09 09:41:00,
2013-03-09 03:56:00,33.0,31.0,29.98,ESE,123,6.0,-999.0,93,-99.99,,,0.00,weatherlink.com 1.10,2013-03-09 09:56:00,
2013-03-09 04:00:00,33.3,32.0,29.94,East,90,6.0,11.0,95,0.00,,SKC,0.00,VWS V14.01,2013-03-09 10:00:00,
2013-03-09 04:11:00,33.0,31.0,29.97,ESE,123,6.0,-999.0,93,-99.99,,,0.00,weatherlink.com 1.10,2013-03-09 10:11:00,
2013-03-09 04:26:00,33.0,32.0,29.96,ESE,123,6.0,-999.0,94,-99.99,,,0.00,weatherlink.com 1.10,2013-03-09 10:26:00,
2013-03-09 04:30:00,33.4,32.1,29.93,East,90,5.0,12.0,95,0.00,,SKC,0.00,VWS V14.01,2013-03-09 10:30:00,
2013-03-09 04:41:00,33.2,32.0,29.96,East,91,8.0,-999.0,94,-99.99,,,0.00,weatherlink.com 1.10,2013-03-09 10:41:00,
2013-03-09 04:56:00,33.3,32.0,29.95,East,95,6.0,-999.0,95,-99.99,,,0.00,weatherlink.com 1.10,2013-03-09 10:56:00,
2013-03-09 05:00:00,33.4,32.1,29.93,ESE,112,4.0,11.0,95,0.00,,SKC,0.00,VWS V14.01,2013-03-09 11:00:00,
2013-03-09 05:11:00,33.4,32.0,29.94,ESE,103,6.0,-999.0,95,-99.99,,,0.00,weatherlink.com 1.10,2013-03-09 11:11:00,
2013-03-09 05:26:00,33.4,32.0,29.93,ESE,107,5.0,-999.0,95,-99.99,,,0.00,weatherlink.com 1.10,2013-03-09 11:26:00,
2013-03-09 05:30:00,33.4,32.1,29.93,ESE,112,4.0,9.0,95,0.00,,SKC,0.00,VWS V14.01,2013-03-09 11:30:00,
2013-03-09 05:41:00,33.4,32.0,29.94,SSE,163,4.0,-999.0,95,-99.99,,,0.00,weatherlink.com 1.10,2013-03-09 11:41:00,
2013-03-09 05:56:00,33.4,32.0,29.93,East,86,4.0,-999.0,95,-99.99,,,0.00,weatherlink.com 1.10,2013-03-09 11:56:00,
2013-03-09 06:00:00,33.4,32.4,29.92,East,90,3.0,8.0,96,0.00,,SKC,0.00,VWS V14.01,2013-03-09 12:00:00,
2013-03-09 06:11:00,33.4,32.0,29.93,East,100,2.0,-999.0,95,-99.99,,,0.00,weatherlink.com 1.10,2013-03-09 12:11:00,
2013-03-09 06:26:00,33.4,32.0,29.93,ESE,119,1.0,-999.0,95,-99.99,,,0.00,weatherlink.com 1.10,2013-03-09 12:26:00,
2013-03-09 06:30:00,33.3,32.3,29.90,ESE,112,2.0,6.0,96,0.00,,SKC,0.00,VWS V14.01,2013-03-09 12:30:00,
2013-03-09 06:41:00,33.4,32.0,29.93,East,93,1.0,-999.0,95,-99.99,,,0.00,weatherlink.com 1.10,2013-03-09 12:41:00,
2013-03-09 06:56:00,33.4,32.0,29.91,ESE,108,1.0,-999.0,96,-99.99,,,0.00,weatherlink.com 1.10,2013-03-09 12:56:00,
2013-03-09 07:00:00,33.7,32.7,29.88,ESE,112,3.0,7.0,96,0.00,,SKC,0.00,VWS V14.01,2013-03-09 13:00:00,
2013-03-09 07:11:00,33.3,32.0,29.91,East,96,2.0,-999.0,96,-99.99,,,0.00,weatherlink.com 1.10,2013-03-09 13:11:00,
2013-03-09 07:26:00,33.3,32.0,29.90,ESE,104,0.0,-999.0,96,-99.99,,,0.00,weatherlink.com 1.10,2013-03-09 13:26:00,
2013-03-09 07:30:00,34.3,33.3,29.87,ESE,112,5.0,9.0,96,0.26,,SKC,0.26,VWS V14.01,2013-03-09 13:30:00,
2013-03-09 07:41:00,33.4,32.0,29.89,ESE,111,2.0,-999.0,96,-99.99,,,0.00,weatherlink.com 1.10,2013-03-09 13:41:00,
2013-03-09 07:56:00,33.6,33.0,29.88,ESE,107,6.0,-999.0,96,-99.99,,,0.00,weatherlink.com 1.10,2013-03-09 13:56:00,
2013-03-09 08:00:00,34.6,33.6,29.86,ESE,112,4.0,12.0,96,0.27,,SKC,0.27,VWS V14.01,2013-03-09 14:00:00,
2013-03-09 08:11:00,34.0,33.0,29.88,ESE,107,4.0,-999.0,96,-99.99,,,0.13,weatherlink.com 1.10,2013-03-09 14:11:00,
2013-03-09 08:26:00,34.2,33.0,29.87,ESE,113,8.0,-999.0,96,-99.99,,,0.26,weatherlink.com 1.10,2013-03-09 14:26:00,
2013-03-09 08:30:00,34.8,33.8,29.85,ESE,112,6.0,13.0,96,0.27,,SKC,0.27,VWS V14.01,2013-03-09 14:30:00,
2013-03-09 08:41:00,34.4,33.0,29.87,ESE,105,6.0,-999.0,96,-99.99,,,0.26,weatherlink.com 1.10,2013-03-09 14:41:00,
2013-03-09 08:57:00,34.5,34.0,29.86,SE,142,4.0,-999.0,96,-99.99,,,0.27,weatherlink.com 1.10,2013-03-09 14:57:00,
2013-03-09 09:00:00,34.9,33.9,29.83,ESE,112,5.0,12.0,96,0.28,,SKC,0.28,VWS V14.01,2013-03-09 15:00:00,
2013-03-09 09:12:00,34.7,34.0,29.85,East,90,7.0,-999.0,96,-99.99,,,0.27,weatherlink.com 1.10,2013-03-09 15:12:00,
2013-03-09 09:27:00,34.8,34.0,29.85,SE,126,6.0,-999.0,96,-99.99,,,0.27,weatherlink.com 1.10,2013-03-09 15:27:00,
2013-03-09 09:30:00,35.0,34.0,29.83,ESE,112,5.0,12.0,96,0.28,,SKC,0.28,VWS V14.01,2013-03-09 15:30:00,
2013-03-09 09:42:00,34.9,34.0,29.84,SE,124,6.0,-999.0,96,-99.99,,,0.27,weatherlink.com 1.10,2013-03-09 15:42:00,
2013-03-09 09:57:00,34.9,34.0,29.83,ENE,77,4.0,-999.0,96,-99.99,,,0.28,weatherlink.com 1.10,2013-03-09 15:57:00,
2013-03-09 10:00:00,35.1,34.1,29.83,ESE,112,5.0,11.0,96,0.02,,SKC,0.28,VWS V14.01,2013-03-09 16:00:00,
2013-03-09 10:12:00,35.0,34.0,29.83,ESE,105,5.0,-999.0,96,-99.99,,,0.28,weatherlink.com 1.10,2013-03-09 16:12:00,
2013-03-09 10:27:00,35.1,34.0,29.83,ESE,113,7.0,-999.0,96,-99.99,,,0.28,weatherlink.com 1.10,2013-03-09 16:27:00,
2013-03-09 10:30:00,35.2,34.2,29.80,ESE,112,5.0,12.0,96,0.01,,SKC,0.28,VWS V14.01,2013-03-09 16:30:00,
2013-03-09 10:42:00,35.1,34.0,29.82,SE,136,4.0,-999.0,96,-99.99,,,0.28,weatherlink.com 1.10,2013-03-09 16:42:00,
2013-03-09 10:57:00,35.1,34.0,29.83,East,94,4.0,-999.0,96,-99.99,,,0.28,weatherlink.com 1.10,2013-03-09 16:57:00,
2013-03-09 11:00:00,35.3,34.3,29.79,ESE,112,5.0,11.0,96,0.01,,SKC,0.28,VWS V14.01,2013-03-09 17:00:00,
2013-03-09 11:12:00,35.0,34.0,29.82,SE,135,6.0,-999.0,96,-99.99,,,0.28,weatherlink.com 1.10,2013-03-09 17:12:00,
2013-03-09 11:27:00,35.1,34.0,29.80,SE,127,7.0,-999.0,96,-99.99,,,0.28,weatherlink.com 1.10,2013-03-09 17:27:00,
2013-03-09 11:30:00,35.4,34.4,29.78,ESE,112,4.0,8.0,96,0.00,,SKC,0.28,VWS V14.01,2013-03-09 17:30:00,
2013-03-09 11:42:00,35.3,34.0,29.80,ESE,103,2.0,-999.0,96,-99.99,,,0.28,weatherlink.com 1.10,2013-03-09 17:42:00,
2013-03-09 11:57:00,35.3,34.0,29.80,ESE,115,5.0,-999.0,96,-99.99,,,0.28,weatherlink.com 1.10,2013-03-09 17:57:00,
2013-03-09 12:00:00,35.5,34.5,29.77,East,90,4.0,8.0,96,0.02,,SKC,0.30,VWS V14.01,2013-03-09 18:00:00,
2013-03-09 12:12:00,35.4,34.0,29.79,ESE,121,2.0,-999.0,96,-99.99,,,0.28,weatherlink.com 1.10,2013-03-09 18:12:00,
2013-03-09 12:27:00,35.3,34.0,29.78,ESE,107,2.0,-999.0,96,-99.99,,,0.28,weatherlink.com 1.10,2013-03-09 18:27:00,
2013-03-09 12:30:00,35.4,34.4,29.76,ESE,112,2.0,6.0,96,0.07,,SKC,0.35,VWS V14.01,2013-03-09 18:30:00,
2013-03-09 12:42:00,35.5,35.0,29.77,East,94,2.0,-999.0,96,-99.99,,,0.28,weatherlink.com 1.10,2013-03-09 18:42:00,
2013-03-09 12:57:00,35.5,35.0,29.77,ESE,114,4.0,-999.0,96,-99.99,,,0.30,weatherlink.com 1.10,2013-03-09 18:57:00,
2013-03-09 13:00:00,35.5,34.7,29.73,East,90,2.0,8.0,97,0.10,,SKC,0.38,VWS V14.01,2013-03-09 19:00:00,
2013-03-09 13:12:00,35.5,35.0,29.77,ESE,121,0.0,-999.0,96,-99.99,,,0.33,weatherlink.com 1.10,2013-03-09 19:12:00,
2013-03-09 13:27:00,35.4,34.0,29.76,ESE,105,0.0,-999.0,96,-99.99,,,0.35,weatherlink.com 1.10,2013-03-09 19:27:00,
2013-03-09 13:30:00,35.7,34.7,29.73,East,90,3.0,7.0,96,0.11,,SKC,0.39,VWS V14.01,2013-03-09 19:30:00,
2013-03-09 13:42:00,35.4,34.0,29.75,ESE,102,1.0,-999.0,96,-99.99,,,0.37,weatherlink.com 1.10,2013-03-09 19:42:00,
2013-03-09 13:57:00,35.5,35.0,29.73,East,83,5.0,-999.0,97,-99.99,,,0.38,weatherlink.com 1.10,2013-03-09 19:57:00,
2013-03-09 14:00:00,35.8,34.8,29.72,East,90,3.0,7.0,96,0.11,,SKC,0.39,VWS V14.01,2013-03-09 20:00:00,
2013-03-09 14:12:00,35.7,35.0,29.73,SE,134,4.0,-999.0,96,-99.99,,,0.39,weatherlink.com 1.10,2013-03-09 20:12:00,
2013-03-09 14:27:00,35.7,35.0,29.73,East,95,5.0,-999.0,96,-99.99,,,0.39,weatherlink.com 1.10,2013-03-09 20:27:00,
2013-03-09 14:30:00,35.8,34.8,29.71,East,90,3.0,8.0,96,0.09,,SKC,0.39,VWS V14.01,2013-03-09 20:30:00,
2013-03-09 14:42:00,35.7,35.0,29.72,East,88,0.0,-999.0,96,-99.99,,,0.39,weatherlink.com 1.10,2013-03-09 20:42:00,
2013-03-09 14:57:00,35.8,35.0,29.72,ENE,78,3.0,-999.0,96,-99.99,,,0.39,weatherlink.com 1.10,2013-03-09 20:57:00,
2013-03-09 15:00:00,35.8,35.0,29.72,ESE,112,2.0,6.0,97,0.05,,SKC,0.40,VWS V14.01,2013-03-09 21:00:00,
2013-03-09 15:12:00,35.9,35.0,29.71,East,90,2.0,-999.0,97,-99.99,,,0.39,weatherlink.com 1.10,2013-03-09 21:12:00,
2013-03-09 15:28:00,35.8,35.0,29.71,ESE,121,2.0,-999.0,96,-99.99,,,0.39,weatherlink.com 1.10,2013-03-09 21:28:00,
2013-03-09 15:30:00,35.8,35.0,29.71,East,90,0.0,4.0,97,0.03,,SKC,0.41,VWS V14.01,2013-03-09 21:30:00,
2013-03-09 15:42:00,35.9,35.0,29.72,ESE,108,1.0,-999.0,97,-99.99,,,0.40,weatherlink.com 1.10,2013-03-09 21:42:00,
2013-03-09 15:57:00,35.8,35.0,29.72,East,86,2.0,-999.0,97,-99.99,,,0.40,weatherlink.com 1.10,2013-03-09 21:57:00,
2013-03-09 16:00:00,35.7,34.9,29.69,East,90,1.0,6.0,97,0.05,,SKC,0.44,VWS V14.01,2013-03-09 22:00:00,
2013-03-09 16:12:00,35.8,35.0,29.72,East,79,0.0,-999.0,97,-99.99,,,0.41,weatherlink.com 1.10,2013-03-09 22:12:00,
2013-03-09 16:27:00,35.8,35.0,29.71,East,90,0.0,-999.0,97,-99.99,,,0.41,weatherlink.com 1.10,2013-03-09 22:27:00,
2013-03-09 16:30:00,35.6,34.8,29.71,East,90,0.0,1.0,97,0.05,,SKC,0.44,VWS V14.01,2013-03-09 22:30:00,
2013-03-09 16:42:00,35.7,35.0,29.69,East,96,0.0,-999.0,97,-99.99,,,0.43,weatherlink.com 1.10,2013-03-09 22:42:00,
2013-03-09 16:57:00,35.7,35.0,29.70,East,90,0.0,-999.0,97,-99.99,,,0.44,weatherlink.com 1.10,2013-03-09 22:57:00,
2013-03-09 17:00:00,35.3,34.5,29.71,East,90,0.0,1.0,97,0.05,,SKC,0.44,VWS V14.01,2013-03-09 23:00:00,
2013-03-09 17:14:00,35.7,35.0,29.71,East,90,0.0,-999.0,97,-99.99,,,0.44,weatherlink.com 1.10,2013-03-09 23:14:00,
2013-03-09 17:27:00,35.6,35.0,29.71,East,90,0.0,-999.0,97,-99.99,,,0.44,weatherlink.com 1.10,2013-03-09 23:27:00,
2013-03-09 17:30:00,35.2,34.4,29.71,East,90,0.0,0.0,97,0.05,,SKC,0.45,VWS V14.01,2013-03-09 23:30:00,
2013-03-09 17:42:00,35.6,35.0,29.72,East,90,0.0,-999.0,97,-99.99,,,0.44,weatherlink.com 1.10,2013-03-09 23:42:00,
2013-03-09 17:57:00,35.3,35.0,29.71,East,90,0.0,-999.0,97,-99.99,,,0.44,weatherlink.com 1.10,2013-03-09 23:57:00,
2013-03-09 18:00:00,34.7,33.9,29.72,East,90,0.0,0.0,97,0.04,,SKC,0.45,VWS V14.01,2013-03-10 00:00:00,
2013-03-09 18:12:00,35.4,35.0,29.71,East,90,0.0,-999.0,97,-99.99,,,0.45,weatherlink.com 1.10,2013-03-10 00:12:00,
2013-03-09 18:27:00,35.2,35.0,29.71,East,90,0.0,-999.0,97,-99.99,,,0.45,weatherlink.com 1.10,2013-03-10 00:27:00,
2013-03-09 18:30:00,34.7,33.9,29.72,East,90,0.0,0.0,97,0.02,,SKC,0.46,VWS V14.01,2013-03-10 00:30:00,
2013-03-09 18:42:00,35.0,34.0,29.72,East,90,0.0,-999.0,97,-99.99,,,0.45,weatherlink.com 1.10,2013-03-10 00:42:00,
2013-03-09 18:57:00,34.8,34.0,29.72,East,90,0.0,-999.0,97,-99.99,,,0.45,weatherlink.com 1.10,2013-03-10 00:57:00,
2013-03-09 19:00:00,34.6,33.8,29.72,East,90,0.0,0.0,97,0.02,,SKC,0.46,VWS V14.01,2013-03-10 01:00:00,
2013-03-09 19:12:00,34.6,34.0,29.72,East,90,0.0,-999.0,97,-99.99,,,0.46,weatherlink.com 1.10,2013-03-10 01:12:00,
2013-03-09 19:27:00,34.6,34.0,29.72,East,90,0.0,-999.0,97,-99.99,,,0.46,weatherlink.com 1.10,2013-03-10 01:27:00,
2013-03-09 19:30:00,34.3,33.5,29.73,East,90,0.0,0.0,97,0.02,,SKC,0.46,VWS V14.01,2013-03-10 01:30:00,
2013-03-09 19:42:00,34.7,34.0,29.73,East,90,0.0,-999.0,97,-99.99,,,0.46,weatherlink.com 1.10,2013-03-10 01:42:00,
2013-03-09 19:57:00,34.6,34.0,29.72,East,90,0.0,-999.0,97,-99.99,,,0.46,weatherlink.com 1.10,2013-03-10 01:57:00,
2013-03-09 20:00:00,33.9,33.1,29.74,East,90,0.0,0.0,97,0.02,,SKC,0.47,VWS V14.01,2013-03-10 02:00:00,
2013-03-09 20:12:00,34.4,34.0,29.73,East,90,0.0,-999.0,97,-99.99,,,0.46,weatherlink.com 1.10,2013-03-10 02:12:00,
2013-03-09 20:27:00,34.3,34.0,29.73,East,90,0.0,-999.0,97,-99.99,,,0.46,weatherlink.com 1.10,2013-03-10 02:27:00,
2013-03-09 20:30:00,34.4,33.6,29.75,East,90,0.0,1.0,97,0.02,,SKC,0.47,VWS V14.01,2013-03-10 02:30:00,
2013-03-09 20:42:00,34.1,33.0,29.74,East,90,0.0,-999.0,97,-99.99,,,0.46,weatherlink.com 1.10,2013-03-10 02:42:00,
2013-03-09 20:57:00,33.9,33.0,29.74,East,90,0.0,-999.0,97,-99.99,,,0.47,weatherlink.com 1.10,2013-03-10 02:57:00,
2013-03-09 21:00:00,34.5,33.7,29.75,NW,315,0.0,5.0,97,0.01,,SKC,0.47,VWS V14.01,2013-03-10 03:00:00,
2013-03-09 21:12:00,34.2,34.0,29.75,East,90,0.0,-999.0,97,-99.99,,,0.47,weatherlink.com 1.10,2013-03-10 03:12:00,
2013-03-09 21:27:00,34.4,34.0,29.75,East,90,0.0,-999.0,97,-99.99,,,0.47,weatherlink.com 1.10,2013-03-10 03:27:00,
2013-03-09 21:30:00,34.3,33.5,29.77,NW,315,1.0,11.0,97,0.01,,SKC,0.47,VWS V14.01,2013-03-10 03:30:00,
2013-03-09 21:43:00,34.5,34.0,29.75,East,90,0.0,-999.0,97,-99.99,,,0.47,weatherlink.com 1.10,2013-03-10 03:43:00,
2013-03-09 21:57:00,34.5,34.0,29.75,NW,311,0.0,-999.0,97,-99.99,,,0.47,weatherlink.com 1.10,2013-03-10 03:57:00,
2013-03-09 22:00:00,34.1,33.3,29.77,NW,315,1.0,7.0,97,0.01,,SKC,0.47,VWS V14.01,2013-03-10 04:00:00,
2013-03-09 22:13:00,34.4,34.0,29.77,NW,313,0.0,-999.0,97,-99.99,,,0.47,weatherlink.com 1.10,2013-03-10 04:13:00,
2013-03-09 22:28:00,34.2,34.0,29.76,WNW,300,2.0,-999.0,97,-99.99,,,0.47,weatherlink.com 1.10,2013-03-10 04:28:00,
2013-03-09 22:30:00,33.9,33.1,29.78,NW,315,0.0,5.0,97,0.00,,SKC,0.47,VWS V14.01,2013-03-10 04:30:00,
2013-03-09 22:43:00,34.2,34.0,29.77,WNW,297,0.0,-999.0,97,-99.99,,,0.47,weatherlink.com 1.10,2013-03-10 04:43:00,
2013-03-09 22:58:00,34.1,33.0,29.77,NW,317,0.0,-999.0,97,-99.99,,,0.47,weatherlink.com 1.10,2013-03-10 04:58:00,
2013-03-09 23:00:00,33.8,33.0,29.80,NW,315,0.0,6.0,97,0.00,,SKC,0.00,VWS V14.01,2013-03-10 05:00:00,
2013-03-09 23:13:00,34.0,33.0,29.78,NW,317,0.0,-999.0,97,-99.99,,,0.47,weatherlink.com 1.10,2013-03-10 05:13:00,
2013-03-09 23:28:00,33.9,33.0,29.79,NW,313,0.0,-999.0,97,-99.99,,,0.47,weatherlink.com 1.10,2013-03-10 05:28:00,
2013-03-09 23:30:00,33.8,33.0,29.80,NW,315,0.0,6.0,97,0.00,,SKC,0.00,VWS V14.01,2013-03-10 05:30:00,
2013-03-09 23:43:00,33.8,33.0,29.79,NW,313,0.0,-999.0,97,-99.99,,,0.47,weatherlink.com 1.10,2013-03-10 05:43:00,
2013-03-09 23:58:00,33.8,33.0,29.80,NW,321,0.0,-999.0,97,-99.99,,,0.47,weatherlink.com 1.10,2013-03-10 05:58:00,